• Join FlightAware (Why Join?)
  • Login
  • US Flag 
12:44PM EDT


 

Airport Tracker/Info


-or-


 

Live Flight TrackerFlight Track Log ✈ DAL1117 ✈ 11-Apr-2013 ✈ KDTW - KLAS

Flight Track Log - Related Links

Times and Time Zones

All times are in EDT time to prevent confusion due to time zone crossing. See the DAL1117 flight status page for this flight to view local times or setup timezone preferences in your user account.

Time Position Orientation Groundspeed Altitude Reporting Facility
EDT Latitude Longitude Course Direction KTS MPH feet Rate Location/Type
09:51PM 42.2314 -83.3342 North 163 188 1,500  Level Cleveland Center
09:51PM 42.2572 -83.3292 North 179 206 2,600 1,560 Climbing FAA TRACON SMA TRACON (SMA)
09:52PM 42.2772 -83.3278 North 210 242 2,900 720 Climbing FAA TRACON SMA TRACON (SMA)
09:52PM 42.2956 -83.3256 North 239 275 3,100 1,200 Climbing FAA TRACON SMA TRACON (SMA)
09:52PM 42.3222 -83.3222 North 264 304 3,700 2,100 Climbing FAA TRACON SMA TRACON (SMA)
09:53PM 42.3436 -83.3331 339° North 273 314 4,500 2,160 Climbing FAA TRACON SMA TRACON (SMA)
09:53PM 42.3597 -83.3631 306° West 284 327 5,200 2,280 Climbing FAA TRACON SMA TRACON (SMA)
09:53PM 42.3703 -83.3922 296° West 282 325 6,000 3,000 Climbing FAA TRACON SMA TRACON (SMA)
09:54PM 42.3753 -83.4319 280° West 277 319 7,200 3,420 Climbing FAA TRACON SMA TRACON (SMA)
09:54PM 42.3775 -83.4628 276° West 289 333 8,300 2,760 Climbing FAA TRACON SMA TRACON (SMA)
09:54PM 42.3800 -83.4922 277° West 275 316 9,000 2,580 Climbing FAA TRACON SMA TRACON (SMA)
09:55PM 42.3839 -83.5350 277° West 279 321 10,100 3,000 Climbing FAA TRACON SMA TRACON (SMA)
09:55PM 42.3858 -83.5669 275° West 279 321 11,000 2,520 Climbing FAA TRACON SMA TRACON (SMA)
09:55PM 42.3878 -83.5989 275° West 279 321 11,800 1,740 Climbing FAA TRACON SMA TRACON (SMA)
09:56PM 42.3908 -83.6369 276° West 282 325 12,200 1,200 Climbing FAA TRACON SMA TRACON (SMA)
09:56PM 42.3933 -83.6756 275° West 316 364 12,600 1,320 Climbing FAA TRACON SMA TRACON (SMA)
09:56PM 42.3961 -83.7128 276° West 323 372 13,100 2,220 Climbing FAA TRACON SMA TRACON (SMA)
09:57PM 42.3992 -83.7597 275° West 328 377 14,100 2,580 Climbing FAA TRACON SMA TRACON (SMA)
09:57PM 42.4017 -83.7969 275° West 326 375 14,900 1,800 Climbing FAA TRACON SMA TRACON (SMA)
09:57PM 42.4042 -83.8347 275° West 327 376 15,300 1,680 Climbing FAA TRACON SMA TRACON (SMA)
09:58PM 42.4072 -83.8842 275° West 343 395 16,000 1,620 Climbing FAA TRACON SMA TRACON (SMA)
09:58PM 42.4103 -83.9244 276° West 352 405 16,400 1,320 Climbing FAA TRACON SMA TRACON (SMA)
09:58PM 42.4131 -83.9658 275° West 359 413 16,900 1,920 Climbing FAA TRACON SMA TRACON (SMA)
09:59PM 42.4161 -84.0181 275° West 362 417 17,700 2,580 Climbing FAA TRACON SMA TRACON (SMA)
09:59PM 42.4189 -84.0600 275° West 362 417 18,600 2,340 Climbing FAA TRACON SMA TRACON (SMA)
09:59PM 42.4214 -84.1014 275° West 361 415 19,300 1,920 Climbing FAA TRACON SMA TRACON (SMA)
10:00PM 42.4250 -84.1533 275° West 362 417 19,900 1,500 Climbing FAA TRACON SMA TRACON (SMA)
10:00PM 42.4275 -84.1958 275° West 364 419 20,300 1,500 Climbing FAA TRACON SMA TRACON (SMA)
10:00PM 42.4289 -84.2383 273° West 367 422 20,900 1,680 Climbing FAA TRACON SMA TRACON (SMA)
10:01PM 42.4300 -84.2814 272° West 370 426 21,400 1,560 Climbing FAA TRACON SMA TRACON (SMA)
10:01PM 42.4311 -84.3358 272° West 374 430 22,000 1,320 Climbing FAA TRACON SMA TRACON (SMA)
10:01PM 42.4325 -84.3794 272° West 376 433 22,300 1,200 Climbing FAA TRACON SMA TRACON (SMA)
10:02PM 42.4339 -84.4353 272° West 383 441 22,800 1,260 Climbing FAA TRACON SMA TRACON (SMA)
10:02PM 42.4353 -84.4803 272° West 388 447 23,200 900 Climbing FAA TRACON SMA TRACON (SMA)
10:02PM 42.4358 -84.5033 272° West 390 449 23,400 1,260 Climbing FAA TRACON SMA TRACON (SMA)
10:04PM 42.4422 -84.7431 272° West 401 461 25,600 1,320 Climbing Chicago Center
10:05PM 42.4456 -84.8953 272° West 404 465 26,800 840 Climbing Chicago Center
10:06PM 42.4486 -85.0514 272° West 412 474 27,400 540 Climbing Chicago Center
10:07PM 42.4519 -85.2164 272° West 433 498 28,000 840 Climbing Chicago Center
10:08PM 42.4558 -85.4161 272° West 442 509 29,200 1,140 Climbing Chicago Center
10:09PM 42.4578 -85.5819 271° West 441 507 30,400 1,200 Climbing Chicago Center
10:10PM 42.4606 -85.7425 271° West 429 494 31,700 780 Climbing Chicago Center
10:11PM 42.4625 -85.9011 271° West 422 486 32,000 120 Climbing Chicago Center
10:12PM 42.4647 -86.0550 271° West 411 473 32,000  Level Chicago Center
10:13PM 42.4525 -86.2058 264° West 402 463 32,000  Level Chicago Center
10:14PM 42.4342 -86.3517 260° West 394 453 32,000  Level Chicago Center
10:15PM 42.4158 -86.4972 260° West 391 450 32,000  Level Chicago Center
10:16PM 42.3969 -86.6425 260° West 391 450 32,000  Level Chicago Center
10:17PM 42.3786 -86.8133 262° West 386 444 32,000  Level Chicago Center
10:18PM 42.3586 -86.9525 259° West 380 437 32,000  Level Chicago Center
10:19PM 42.3397 -87.0878 259° West 371 427 32,000  Level Chicago Center
10:20PM 42.3208 -87.2236 259° West 371 427 32,000  Level Chicago Center
10:21PM 42.3028 -87.3625 260° West 375 432 32,000  Level Chicago Center
10:22PM 42.2806 -87.5281 260° West 378 435 32,000  Level Chicago Center
10:23PM 42.2606 -87.6711 259° West 389 448 32,000  Level Chicago Center
10:24PM 42.2408 -87.8150 260° West 393 452 32,000  Level Chicago Center
10:25PM 42.2203 -87.9558 259° West 388 447 32,000  Level Chicago Center
10:27PM 42.1961 -88.0947 257° West 384 442 32,000  Level Chicago Center
10:28PM 42.1711 -88.2344 256° West 387 445 32,000  Level Chicago Center
10:29PM 42.1414 -88.4025 257° West 388 447 32,000  Level Chicago Center
10:30PM 42.1169 -88.5386 256° West 380 437 32,000  Level Chicago Center
10:31PM 42.0919 -88.6775 256° West 385 443 32,000  Level Chicago Center
10:32PM 42.0664 -88.8167 256° West 387 445 32,000  Level Chicago Center
10:33PM 42.0406 -88.9583 256° West 390 449 32,000  Level Chicago Center
10:34PM 42.0144 -89.1003 256° West 393 452 32,000  Level Chicago Center
10:35PM 41.9817 -89.2742 256° West 403 464 32,000  Level Chicago Center
10:36PM 41.9550 -89.4172 256° West 399 459 32,000  Level Chicago Center
10:37PM 41.9292 -89.5597 256° West 397 457 32,000  Level Chicago Center
10:38PM 41.9011 -89.7042 255° West 401 461 32,000  Level Chicago Center
10:39PM 41.8739 -89.8478 256° West 402 463 32,000  Level Chicago Center
10:40PM 41.8478 -89.9889 256° West 408 470 32,000  Level Chicago Center
10:41PM 41.8211 -90.1272 256° West 393 452 32,000  Level Chicago Center
10:42PM 41.7883 -90.2894 255° West 398 458 32,000  Level Chicago Center
10:43PM 41.7600 -90.4322 255° West 398 458 32,000  Level Chicago Center
10:44PM 41.7322 -90.5742 255° West 396 456 32,000  Level Chicago Center
10:45PM 41.7022 -90.7233 255° West 396 456 32,000  Level Chicago Center
10:46PM 41.6744 -90.8633 255° West 393 452 32,000  Level Chicago Center
10:47PM 41.6458 -91.0008 254° West 387 445 32,000  Level Chicago Center
10:48PM 41.6183 -91.1369 255° West 383 441 32,000  Level Chicago Center
10:49PM 41.5847 -91.2989 255° West 379 436 32,000  Level Chicago Center
10:50PM 41.5556 -91.4378 254° West 388 447 32,000  Level Chicago Center
10:51PM 41.5272 -91.5753 255° West 387 445 32,000  Level Chicago Center
10:52PM 41.5094 -91.7206 261° West 398 458 32,000  Level Chicago Center
10:53PM 41.4953 -91.8686 263° West 402 463 32,000  Level Chicago Center
10:54PM 41.4803 -92.0156 262° West 401 461 32,000  Level Chicago Center
10:55PM 41.4667 -92.1628 263° West 401 461 32,000  Level Chicago Center
10:56PM 41.4533 -92.3056 263° West 393 452 32,000 -60 Level Chicago Center
10:57PM 41.4369 -92.4567 262° West 395 455 31,900  Descending Chicago Center
10:58PM 41.4219 -92.6022 262° West 400 460 32,000 60 Climbing Chicago Center
10:59PM 41.4108 -92.7208 263° West 401 461 32,000 60 Level Minneapolis Center
11:00PM 41.3956 -92.8681 262° West 403 464 32,100  Climbing Minneapolis Center
11:01PM 41.3803 -93.0122 262° West 400 460 32,000 -60 Descending Minneapolis Center
11:02PM 41.3650 -93.1592 262° West 403 464 32,000  Level Minneapolis Center
11:03PM 41.3489 -93.3069 262° West 405 466 32,000  Level Minneapolis Center
11:04PM 41.3322 -93.4553 262° West 409 471 32,000  Level Minneapolis Center
11:05PM 41.3167 -93.6014 262° West 404 465 32,000  Level Minneapolis Center
11:06PM 41.2997 -93.7494 261° West 406 467 32,000  Level Minneapolis Center
11:07PM 41.2836 -93.9022 262° West 416 479 32,000  Level Minneapolis Center
11:08PM 41.2628 -94.0833 261° West 416 479 32,000  Level Minneapolis Center
11:09PM 41.2458 -94.2236 261° West 415 478 32,000  Level Minneapolis Center
11:10PM 41.2289 -94.3736 262° West 413 475 32,000  Level Minneapolis Center
11:11PM 41.2117 -94.5242 261° West 412 474 32,000  Level Minneapolis Center
11:12PM 41.1928 -94.6739 261° West 411 473 32,000  Level Minneapolis Center
11:13PM 41.1750 -94.8217 261° West 407 468 32,000  Level Minneapolis Center
11:14PM 41.1614 -94.9375 261° West 402 463 32,000  Level Minneapolis Center
11:15PM 41.1358 -95.1381 260° West 394 453 32,000  Level Minneapolis Center
11:16PM 41.1183 -95.2794 261° West 390 449 32,000  Level Minneapolis Center
11:17PM 41.1000 -95.4206 260° West 388 447 32,000  Level Minneapolis Center
11:18PM 41.0817 -95.5636 260° West 390 449 32,000  Level Minneapolis Center
11:19PM 41.0631 -95.7072 260° West 392 451 32,000  Level Minneapolis Center
11:20PM 41.0439 -95.8528 260° West 395 455 32,000  Level Minneapolis Center
11:21PM 41.0250 -95.9992 260° West 399 459 32,000  Level Minneapolis Center
11:22PM 41.0053 -96.1397 260° West 390 449 32,000  Level Minneapolis Center
11:23PM 40.9881 -96.2800 261° West 385 443 32,000  Level Minneapolis Center
11:24PM 40.9683 -96.4197 259° West 384 442 32,000  Level Minneapolis Center
11:25PM 40.9489 -96.5614 260° West 388 447 32,000  Level Minneapolis Center
11:26PM 40.9297 -96.7033 260° West 391 450 32,000  Level Minneapolis Center
11:27PM 40.9131 -96.8433 261° West 387 445 32,000  Level Minneapolis Center
11:28PM 40.9011 -96.9850 264° West 387 445 32,000  Level Minneapolis Center
11:29PM 40.8875 -97.1256 263° West 387 445 32,000  Level Minneapolis Center
11:30PM 40.8733 -97.2681 263° West 389 448 32,000  Level Minneapolis Center
11:32PM 40.8550 -97.4592 263° West 392 451 32,000  Level Minneapolis Center
11:33PM 40.8403 -97.6022 262° West 392 451 32,000  Level Minneapolis Center
11:34PM 40.8244 -97.7464 262° West 395 455 32,000  Level Minneapolis Center
11:35PM 40.8094 -97.8897 262° West 394 453 32,000  Level Minneapolis Center
11:36PM 40.7958 -98.0344 263° West 396 456 32,000  Level Minneapolis Center
11:37PM 40.7797 -98.1792 262° West 397 457 32,000  Level Minneapolis Center
11:38PM 40.7647 -98.3253 262° West 399 459 32,000  Level Minneapolis Center
11:39PM 40.7492 -98.4717 262° West 400 460 32,000  Level Minneapolis Center
11:40PM 40.7328 -98.6192 262° West 402 463 32,100 240 Climbing Minneapolis Center
11:41PM 40.7161 -98.7653 261° West 401 461 32,600 720 Climbing Minneapolis Center
11:42PM 40.6997 -98.9075 261° West 394 453 33,600 660 Climbing Minneapolis Center
11:43PM 40.6853 -99.0503 262° West 392 451 34,000 180 Climbing Minneapolis Center
11:44PM 40.6706 -99.1672 261° West 397 457 34,000  Level Denver Center
11:45PM 40.6528 -99.3147 261° West 404 465 34,000  Level Denver Center
11:46PM 40.6369 -99.4614 262° West 403 464 34,000  Level Denver Center
11:47PM 40.6192 -99.6072 261° West 403 464 34,000  Level Denver Center
11:48PM 40.5978 -99.7819 261° West 403 464 34,000  Level Denver Center
11:49PM 40.5797 -99.9331 261° West 412 474 34,000  Level Denver Center
11:50PM 40.5617 -100.0756 261° West 413 475 34,000  Level Denver Center
11:51PM 40.5442 -100.2200 261° West 417 480 34,000  Level Denver Center
11:52PM 40.5228 -100.3911 261° West 422 486 34,100  Climbing Denver Center
11:53PM 40.5042 -100.5367 261° West 421 484 34,000 -60 Descending Denver Center
11:54PM 40.4856 -100.6808 260° West 416 479 34,000  Level Denver Center
11:55PM 40.4639 -100.8500 260° West 417 480 34,000  Level Denver Center
11:56PM 40.4447 -100.9967 260° West 422 486 34,000  Level Denver Center
11:57PM 40.4247 -101.1433 260° West 424 488 34,000  Level Denver Center
11:58PM 40.4019 -101.3128 260° West 422 486 34,000  Level Denver Center
11:59PM 40.3822 -101.4569 260° West 420 483 34,000  Level Denver Center
12:00AM 40.3611 -101.6014 259° West 420 483 34,000  Level Denver Center
12:01AM 40.3375 -101.7714 260° West 424 488 34,000  Level Denver Center
12:02AM 40.3167 -101.9144 259° West 419 482 34,000  Level Denver Center
12:03AM 40.2922 -102.0833 259° West 421 484 34,000  Level Denver Center
12:04AM 40.2722 -102.2275 260° West 422 486 34,000  Level Denver Center
12:05AM 40.2494 -102.3711 258° West 421 484 34,000  Level Denver Center
12:06AM 40.2264 -102.5378 260° West 416 479 34,000  Level Denver Center
12:07AM 40.2036 -102.6783 258° West 414 476 34,000  Level Denver Center
12:08AM 40.1819 -102.8231 259° West 417 480 34,000  Level Denver Center
12:09AM 40.1589 -102.9736 259° West 420 483 34,000  Level Denver Center
12:10AM 40.1358 -103.1272 259° West 428 493 34,000  Level Denver Center
12:11AM 40.1122 -103.2842 259° West 436 502 34,000  Level Denver Center
12:12AM 40.0889 -103.4347 259° West 421 484 34,000 -60 Level Denver Center
12:13AM 40.0639 -103.5850 258° West 419 482 33,900  Descending Denver Center
12:14AM 40.0406 -103.7369 259° West 425 489 34,000  Climbing Denver Center
12:15AM 40.0119 -103.9150 258° West 427 491 34,000  Level Denver Center
12:16AM 39.9872 -104.0653 258° West 419 482 34,000  Level Denver Center
12:17AM 39.9625 -104.2172 258° West 425 489 34,000  Level Denver Center
12:18AM 39.9372 -104.3678 258° West 423 487 34,000  Level Denver Center
12:19AM 39.9125 -104.5169 258° West 422 486 34,000  Level Denver Center
12:20AM 39.8886 -104.6658 258° West 421 484 34,000  Level Denver Center
12:21AM 39.8581 -104.8111 255° West 416 479 34,000  Level Denver Center
12:22AM 39.8297 -104.9619 256° West 427 491 34,000  Level Denver Center
12:23AM 39.8003 -105.1108 256° West 425 489 34,000  Level Denver Center
12:24AM 39.7711 -105.2614 256° West 426 490 34,000  Level Denver Center
12:25AM 39.7417 -105.4128 256° West 428 493 34,000  Level Denver Center
12:26AM 39.7108 -105.5639 255° West 427 491 34,000  Level Denver Center
12:27AM 39.6803 -105.7158 255° West 431 496 34,000  Level Denver Center
12:28AM 39.6467 -105.8861 256° West 414 476 34,000  Level Denver Center
12:29AM 39.6158 -106.0364 255° West 424 488 34,000  Level Denver Center
12:30AM 39.5875 -106.1781 255° West 429 494 34,000  Level Denver Center
12:31AM 39.5608 -106.3133 256° West 432 497 34,000  Level Denver Center
12:33AM 39.5297 -106.4636 255° West 433 498 34,000  Level Denver Center
12:34AM 39.4942 -106.6333 255° West 431 496 34,000  Level Denver Center
12:35AM 39.4586 -106.8025 255° West 436 502 34,000  Level Denver Center
12:36AM 39.4275 -106.9442 254° West 430 495 34,000  Level Denver Center
12:37AM 39.3911 -107.0869 252° West 435 501 34,000  Level Denver Center
12:38AM 39.3492 -107.2542 252° West 437 503 34,000  Level Denver Center
12:39AM 39.3117 -107.3997 252° West 443 510 34,000  Level Denver Center
12:40AM 39.2756 -107.5419 252° West 438 504 34,000  Level Denver Center
12:41AM 39.2319 -107.7108 252° West 441 507 34,000  Level Denver Center
12:42AM 39.1947 -107.8547 252° West 441 507 34,000  Level Denver Center
12:43AM 39.1581 -107.9978 252° West 438 504 34,000  Level Denver Center
12:44AM 39.1147 -108.1642 251° West 436 502 34,000  Level Denver Center
12:45AM 39.0769 -108.3081 251° West 439 505 34,000  Level Denver Center
12:46AM 39.0394 -108.4489 251° West 435 501 34,000  Level Denver Center
12:47AM 39.0017 -108.5925 251° West 438 504 34,000  Level Denver Center
12:48AM 38.9578 -108.7581 251° West 439 505 34,000  Level Denver Center
12:49AM 38.9200 -108.8978 251° West 432 497 34,000  Level Denver Center
12:50AM 38.8819 -109.0394 251° West 437 503 34,000  Level Denver Center
12:51AM 38.8364 -109.2053 251° West 440 506 34,000  Level Denver Center
12:52AM 38.7975 -109.3464 251° West 440 506 34,000  Level Denver Center
12:53AM 38.7592 -109.4883 251° West 441 507 34,000  Level Denver Center
12:54AM 38.7128 -109.6514 250° West 436 502 34,000  Level Denver Center
12:55AM 38.6739 -109.7925 251° West 438 504 34,000  Level Denver Center
12:55AM 38.6489 -109.8889 252° West 439 505 34,000  Level Salt Lake Center
12:56AM 38.6092 -110.0283 250° West 437 503 34,000  Level Salt Lake Center
12:57AM 38.5878 -110.0961 248° West 437 503 34,000  Level Denver Center
12:57AM 38.5639 -110.1933 253° West 441 507 34,000  Level Salt Lake Center
12:58AM 38.5086 -110.3272 242° Southwest 443 510 34,000  Level Salt Lake Center
01:00AM 38.4458 -110.4553 238° Southwest 445 512 34,000  Level Salt Lake Center
01:00AM 38.4133 -110.5181 237° Southwest 444 511 34,000  Level Denver Center
01:01AM 38.3506 -110.6464 238° Southwest 445 512 34,000  Level Denver Center
01:02AM 38.3108 -110.7331 240° Southwest 444 511 34,000  Level Salt Lake Center
01:03AM 38.2467 -110.8603 237° Southwest 445 512 34,000  Level Salt Lake Center
01:03AM 38.2186 -110.9156 237° Southwest 444 511 34,000  Level Denver Center
01:04AM 38.1786 -110.9953 237° Southwest 445 512 34,000  Level Salt Lake Center
01:05AM 38.1122 -111.1300 238° Southwest 448 516 34,000  Level Salt Lake Center
01:06AM 38.0467 -111.2628 238° Southwest 446 513 34,000  Level Salt Lake Center
01:07AM 37.9794 -111.3967 238° Southwest 450 518 34,000  Level Salt Lake Center
01:08AM 37.9133 -111.5311 238° Southwest 451 519 34,000  Level Salt Lake Center
01:09AM 37.8314 -111.6878 237° Southwest 446 513 34,000  Level Salt Lake Center
01:10AM 37.7647 -111.8219 238° Southwest 448 516 34,000  Level Salt Lake Center
01:11AM 37.6969 -111.9550 237° Southwest 450 518 34,000  Level Salt Lake Center
01:12AM 37.6286 -112.0872 237° Southwest 450 518 34,000  Level Salt Lake Center
01:13AM 37.5617 -112.2200 238° Southwest 448 516 34,000  Level Salt Lake Center
01:14AM 37.4925 -112.3522 237° Southwest 450 518 34,000  Level Salt Lake Center
01:15AM 37.4236 -112.4847 237° Southwest 450 518 34,000  Level Salt Lake Center
01:16AM 37.3542 -112.6194 237° Southwest 453 521 34,000  Level Salt Lake Center
01:16AM 37.3261 -112.6731 237° Southwest 454 522 34,000  Level Los Angeles Center
01:17AM 37.2842 -112.7531 237° Southwest 453 521 34,000  Level Salt Lake Center
01:18AM 37.2150 -112.8858 237° Southwest 451 519 34,000  Level Salt Lake Center
01:19AM 37.1464 -113.0167 237° Southwest 449 517 34,000  Level Salt Lake Center
01:19AM 37.1178 -113.0675 235° Southwest 446 513 34,000  Level Los Angeles Center
01:20AM 37.0497 -113.1989 237° Southwest 448 516 34,000  Level Los Angeles Center
01:21AM 36.9794 -113.3281 236° Southwest 450 518 34,000 -600 Level Los Angeles Center
01:22AM 36.9114 -113.4581 237° Southwest 448 516 32,800 -2,220 Descending Los Angeles Center
01:23AM 36.8417 -113.5869 236° Southwest 448 516 29,500 -2,880 Descending Los Angeles Center
01:24AM 36.7742 -113.7136 236° Southwest 441 507 26,900 -2,520 Descending Los Angeles Center
01:25AM 36.7094 -113.8353 236° Southwest 424 488 24,400 -2,460 Descending Los Angeles Center
01:26AM 36.6456 -113.9533 236° Southwest 414 476 22,000 -2,640 Descending Los Angeles Center
01:27AM 36.5711 -114.0906 236° Southwest 400 460 19,100 -2,760 Descending Los Angeles Center
01:28AM 36.5183 -114.2081 241° Southwest 391 450 16,400 -2,640 Descending Los Angeles Center
01:29AM 36.4781 -114.3039 242° Southwest 379 436 14,400 -2,220 Descending Los Angeles Center
01:30AM 36.4333 -114.4050 241° Southwest 364 419 12,600 -1,560 Descending Los Angeles Center
01:30AM 36.4203 -114.4206 224° Southwest 365 420 12,500 -900 Descending Los Angeles Center
01:31AM 36.4003 -114.4697 243° Southwest 328 377 12,000 -1,140 Descending Los Angeles Center
01:31AM 36.3611 -114.4992 211° Southwest 327 376 11,400 -1,380 Descending Los Angeles Center
01:32AM 36.3275 -114.5319 218° Southwest 307 353 10,600 -1,620 Descending Los Angeles Center
01:32AM 36.2908 -114.5558 208° Southwest 302 348 9,800 -1,260 Descending Los Angeles Center
01:33AM 36.2386 -114.5994 214° Southwest 288 331 9,000 -900 Descending Los Angeles Center
01:33AM 36.2233 -114.6092 207° Southwest 292 336 8,900 -840 Descending Los Angeles Center
01:34AM 36.1689 -114.6550 214° Southwest 249 287 8,100 -900 Descending Los Angeles Center
01:34AM 36.1525 -114.6642 204° Southwest 261 300 8,000 -120 Descending Los Angeles Center
01:35AM 36.1169 -114.6939 214° Southwest 243 280 8,000  Level Los Angeles Center
01:36AM 36.0969 -114.7081 210° Southwest 242 278 8,000 -300 Level Los Angeles Center
01:36AM 36.0833 -114.7667 254° West 234 269 7,700 -540 Descending Los Angeles Center
01:37AM 36.0772 -114.7856 248° West 238 274 7,500 -1,200 Descending Los Angeles Center
01:37AM 36.0744 -114.8147 263° West 225 259 7,000 -1,020 Descending Los Angeles Center
01:38AM 36.0725 -114.8592 267° West 225 259 6,500 -1,020 Descending Los Angeles Center
01:38AM 36.0744 -114.8839 276° West 210 242 6,000 -1,380 Descending Los Angeles Center
01:39AM 36.0736 -114.9261 269° West 211 243 5,100 -1,200 Descending Los Angeles Center
01:39AM 36.0725 -114.9539 267° West 191 220 4,700 -1,020 Descending Los Angeles Center
01:40AM 36.0736 -114.9914 272° West 200 230 4,100 -1,140 Descending Los Angeles Center
01:40AM 36.0725 -115.0231 268° West 187 215 3,600 -900 Descending Los Angeles Center
01:41AM 36.0742 -115.0528 274° West 190 219 3,200 -780 Descending Los Angeles Center
01:41AM 36.0742 -115.0703 270° West 166 191 2,900 -840 Descending Los Angeles Center
01:42AM 36.0736 -115.1031 269° West 171 197 2,400 -480 Descending Los Angeles Center
01:43AM 36.0739 -115.1472 270° West 147 169 2,100 -300 Descending Los Angeles Center